createdAt,value
2019-05-29T00:12:08.283Z,91.50
2019-05-29T00:14:38.639Z,91.40
2019-05-29T00:17:10.410Z,91.40
2019-05-29T00:19:41.207Z,91.40
2019-05-29T00:22:12.390Z,91.50
2019-05-29T00:24:43.256Z,91.50
2019-05-29T00:27:15.541Z,91.50
2019-05-29T00:29:46.497Z,91.50
2019-05-29T00:32:17.394Z,91.50
2019-05-29T00:34:48.138Z,91.40
2019-05-29T00:37:18.880Z,91.30
2019-05-29T00:39:49.735Z,91.40
2019-05-29T00:42:20.804Z,91.40
2019-05-29T00:44:51.544Z,91.40
2019-05-29T00:47:22.422Z,91.40
2019-05-29T00:49:53.341Z,91.50
2019-05-29T00:52:24.315Z,91.40
2019-05-29T00:54:55.287Z,91.40
2019-05-29T00:57:26.124Z,91.40
2019-05-29T00:59:57.037Z,91.40
2019-05-29T01:02:27.889Z,91.40
2019-05-29T01:04:58.659Z,91.40
2019-05-29T01:07:29.430Z,91.40
2019-05-29T01:10:00.480Z,91.40
2019-05-29T01:12:31.875Z,91.30
2019-05-29T01:15:02.858Z,91.30
2019-05-29T01:17:34.236Z,91.10
2019-05-29T01:20:08.323Z,91.10
2019-05-29T01:22:39.350Z,91.00
2019-05-29T01:25:10.730Z,91.00
2019-05-29T01:27:41.692Z,91.00
2019-05-29T01:30:13.172Z,90.90
2019-05-29T01:32:44.100Z,91.00
2019-05-29T01:35:15.779Z,91.10
2019-05-29T01:37:46.602Z,91.00
2019-05-29T01:40:23.716Z,90.90
2019-05-29T01:42:54.103Z,90.90
2019-05-29T01:45:29.788Z,90.80
2019-05-29T01:48:02.344Z,90.80
2019-05-29T01:50:34.064Z,90.70
2019-05-29T01:53:05.069Z,90.60
2019-05-29T01:55:35.979Z,90.50
2019-05-29T01:58:07.064Z,90.50
2019-05-29T02:00:37.829Z,90.40
2019-05-29T02:03:08.637Z,90.40
2019-05-29T02:05:39.492Z,90.40
2019-05-29T02:08:10.385Z,90.40
2019-05-29T02:10:41.290Z,90.30
2019-05-29T02:13:12.140Z,90.20
2019-05-29T02:15:43.019Z,90.10
2019-05-29T02:18:13.911Z,90.00
2019-05-29T02:20:44.624Z,90.00
2019-05-29T02:23:15.786Z,90.00
2019-05-29T02:25:46.679Z,89.90
2019-05-29T02:28:36.846Z,89.70
2019-05-29T02:31:07.842Z,89.40
2019-05-29T02:33:38.776Z,89.10
2019-05-29T02:36:09.707Z,89.10
2019-05-29T02:38:40.451Z,89.10
2019-05-29T02:41:11.454Z,89.00
2019-05-29T02:43:42.484Z,88.90
2019-05-29T02:46:13.130Z,88.80
2019-05-29T02:48:44.177Z,88.70
2019-05-29T02:51:15.089Z,88.70
2019-05-29T02:53:45.988Z,88.30
2019-05-29T02:56:16.843Z,88.30
2019-05-29T02:58:48.099Z,87.90
2019-05-29T03:01:19.023Z,87.60
2019-05-29T03:03:50.024Z,87.60
2019-05-29T03:06:22.287Z,87.60
2019-05-29T03:08:53.349Z,87.20
2019-05-29T03:11:25.271Z,86.80
2019-05-29T03:13:56.574Z,86.60
2019-05-29T03:16:28.760Z,86.60
2019-05-29T03:18:59.862Z,86.50
2019-05-29T03:21:32.009Z,85.70
2019-05-29T03:24:03.006Z,85.40
2019-05-29T03:26:35.049Z,85.50
2019-05-29T03:29:06.093Z,84.90
2019-05-29T03:31:43.476Z,84.90
2019-05-29T03:34:10.166Z,85.30
2019-05-29T03:36:47.290Z,85.10
2019-05-29T03:39:13.932Z,83.20
2019-05-29T03:41:44.791Z,83.30
2019-05-29T03:44:15.615Z,83.30
2019-05-29T03:46:46.492Z,83.30
2019-05-29T03:49:17.598Z,83.20
2019-05-29T03:51:49.183Z,83.30
2019-05-29T03:54:20.174Z,83.20
2019-05-29T03:56:50.950Z,83.00
2019-05-29T03:59:21.850Z,81.90
2019-05-29T04:01:52.994Z,82.40
2019-05-29T04:04:23.990Z,82.50
2019-05-29T04:06:54.917Z,82.50
2019-05-29T04:09:26.962Z,82.50
2019-05-29T04:11:58.058Z,82.20
2019-05-29T04:14:29.728Z,82.10
2019-05-29T04:17:01.948Z,81.00
2019-05-29T04:19:34.912Z,81.70
2019-05-29T04:24:57.096Z,81.00
2019-05-29T04:27:30.081Z,80.10
2019-05-29T04:30:03.685Z,79.50
2019-05-29T04:32:36.372Z,77.30
2019-05-29T04:35:06.899Z,78.60
2019-05-29T04:37:39.657Z,79.30
2019-05-29T04:40:10.087Z,79.90
2019-05-29T04:42:41.046Z,79.20
2019-05-29T04:45:12.188Z,78.90
2019-05-29T04:47:43.041Z,78.60
2019-05-29T04:50:14.272Z,76.90
2019-05-29T04:52:45.436Z,78.10
2019-05-29T04:55:16.350Z,78.10
2019-05-29T04:57:50.655Z,77.00
2019-05-29T05:00:19.572Z,77.90
2019-05-29T05:02:50.420Z,76.80
2019-05-29T05:05:21.189Z,77.50
2019-05-29T05:07:51.910Z,76.70
2019-05-29T05:10:25.131Z,75.40
2019-05-29T05:12:56.133Z,75.80
2019-05-29T05:15:27.366Z,75.80
2019-05-29T05:17:58.461Z,75.80
2019-05-29T05:20:30.013Z,76.70
2019-05-29T05:23:01.205Z,76.60
2019-05-29T05:25:32.198Z,77.30
2019-05-29T05:28:03.306Z,77.50
2019-05-29T05:30:34.428Z,77.30
2019-05-29T05:33:05.274Z,77.30
2019-05-29T05:35:36.801Z,76.50
2019-05-29T05:38:08.135Z,75.30
2019-05-29T05:40:41.297Z,74.70
2019-05-29T05:43:23.131Z,74.30
2019-05-29T05:45:43.601Z,74.50
2019-05-29T05:48:14.505Z,75.00
2019-05-29T05:50:46.045Z,74.10
2019-05-29T05:53:16.846Z,72.80
2019-05-29T05:55:52.609Z,74.60
2019-05-29T05:58:24.586Z,75.00
2019-05-29T06:00:56.750Z,73.40
2019-05-29T06:03:27.658Z,74.20
2019-05-29T06:05:58.592Z,73.70
2019-05-29T06:08:29.484Z,72.80
2019-05-29T06:11:00.526Z,73.30
2019-05-29T06:13:32.140Z,74.20
2019-05-29T06:16:03.164Z,74.10
2019-05-29T06:18:34.455Z,73.90
2019-05-29T06:21:05.360Z,73.60
2019-05-29T06:23:36.943Z,71.40
2019-05-29T06:26:08.009Z,71.30
2019-05-29T06:28:39.154Z,71.00
2019-05-29T06:31:10.100Z,70.80
2019-05-29T06:33:41.511Z,70.80
2019-05-29T06:36:12.523Z,68.40
2019-05-29T06:38:44.450Z,68.00
2019-05-29T06:41:15.820Z,70.00
2019-05-29T06:43:46.500Z,70.00
2019-05-29T06:46:17.330Z,70.70
2019-05-29T06:48:58.732Z,70.40
2019-05-29T06:51:20.608Z,71.20
2019-05-29T06:53:51.492Z,71.20
2019-05-29T06:56:22.485Z,71.40
2019-05-29T06:58:53.354Z,71.50
2019-05-29T07:01:24.356Z,71.30
2019-05-29T07:04:10.658Z,71.30
2019-05-29T07:06:27.564Z,71.40
2019-05-29T07:08:58.647Z,71.20
2019-05-29T07:11:29.604Z,70.20
2019-05-29T07:14:00.547Z,70.40
2019-05-29T07:16:43.979Z,70.60
2019-05-29T07:19:25.621Z,69.90
2019-05-29T07:21:36.701Z,69.20
2019-05-29T07:24:07.752Z,68.20
2019-05-29T07:26:38.945Z,65.80
2019-05-29T07:29:09.973Z,65.30
2019-05-29T07:31:41.158Z,65.50
2019-05-29T07:34:12.242Z,66.90
2019-05-29T07:36:43.987Z,67.70
2019-05-29T07:39:15.396Z,68.20
2019-05-29T07:41:46.176Z,67.50
2019-05-29T07:44:28.528Z,67.50
2019-05-29T07:46:59.858Z,68.10
2019-05-29T07:49:38.939Z,67.90
2019-05-29T07:52:03.106Z,68.30
2019-05-29T07:54:34.146Z,67.80
2019-05-29T07:57:05.207Z,68.00
2019-05-29T07:59:36.295Z,66.10
2019-05-29T08:02:08.199Z,66.90
2019-05-29T08:04:40.892Z,67.80
2019-05-29T08:07:11.910Z,67.90
2019-05-29T08:09:43.615Z,68.20
2019-05-29T08:12:14.596Z,67.80
2019-05-29T08:14:45.844Z,68.20
2019-05-29T08:17:17.122Z,68.50
2019-05-29T08:20:05.872Z,68.20
2019-05-29T08:22:34.370Z,68.70
2019-05-29T08:25:00.356Z,69.10
2019-05-29T08:27:31.307Z,69.50
2019-05-29T08:30:02.322Z,69.30
2019-05-29T08:32:34.836Z,69.30
2019-05-29T08:35:09.676Z,69.60
2019-05-29T08:37:40.791Z,68.80
2019-05-29T08:40:12.914Z,69.10
2019-05-29T08:42:43.748Z,68.40
2019-05-29T08:45:15.258Z,68.70
2019-05-29T08:47:47.620Z,68.10
2019-05-29T08:50:20.013Z,65.60
2019-05-29T08:52:52.199Z,67.50
2019-05-29T08:55:23.210Z,68.20
2019-05-29T08:57:54.422Z,69.80
2019-05-29T09:00:25.524Z,69.40
2019-05-29T09:02:56.587Z,69.20
2019-05-29T09:05:29.800Z,68.90
2019-05-29T09:08:01.181Z,68.00
2019-05-29T09:10:32.791Z,68.20
2019-05-29T09:13:05.260Z,68.50
2019-05-29T09:15:36.755Z,68.50
2019-05-29T09:18:08.665Z,68.60
2019-05-29T09:21:00.909Z,69.10
2019-05-29T09:23:14.926Z,69.00
2019-05-29T09:25:46.429Z,68.80
2019-05-29T09:28:18.661Z,67.70
2019-05-29T09:30:49.244Z,67.70
2019-05-29T09:33:24.588Z,69.20
2019-05-29T09:35:58.319Z,69.00
2019-05-29T09:38:29.375Z,69.00
2019-05-29T09:41:00.486Z,68.80
2019-05-29T09:43:31.591Z,68.70
2019-05-29T09:46:02.510Z,69.00
2019-05-29T09:48:46.833Z,68.90
2019-05-29T09:51:20.790Z,68.60
2019-05-29T09:53:38.261Z,68.70
2019-05-29T09:56:09.113Z,68.80
2019-05-29T09:58:40.197Z,68.60
2019-05-29T10:01:22.857Z,69.30
2019-05-29T10:03:43.390Z,68.50
2019-05-29T10:06:14.207Z,68.60
2019-05-29T10:08:46.088Z,68.20
2019-05-29T10:11:17.032Z,68.80
2019-05-29T10:13:47.946Z,69.00
2019-05-29T10:16:18.886Z,68.70
2019-05-29T10:18:49.832Z,67.80
2019-05-29T10:21:36.283Z,67.50
2019-05-29T10:23:52.745Z,68.20
2019-05-29T10:26:23.509Z,66.90
2019-05-29T10:29:05.476Z,67.50
2019-05-29T10:31:26.640Z,67.60
2019-05-29T10:33:57.511Z,68.10
2019-05-29T10:36:28.453Z,68.40
2019-05-29T10:38:59.463Z,68.10
2019-05-29T10:41:30.125Z,68.00
2019-05-29T10:44:01.044Z,68.30
2019-05-29T10:46:31.982Z,68.20
2019-05-29T10:49:04.816Z,68.50
2019-05-29T10:51:34.889Z,68.00
2019-05-29T10:54:06.042Z,68.40
2019-05-29T10:56:36.874Z,69.00
2019-05-29T10:59:07.937Z,69.10
2019-05-29T11:01:38.745Z,69.30
2019-05-29T11:04:09.696Z,69.50
2019-05-29T11:06:41.002Z,69.50
2019-05-29T11:09:12.232Z,69.70
2019-05-29T11:11:43.138Z,69.90
2019-05-29T11:14:13.923Z,70.60
2019-05-29T11:16:44.872Z,70.60
2019-05-29T11:19:15.640Z,70.40
2019-05-29T11:21:47.982Z,70.50
2019-05-29T11:24:18.750Z,70.60
2019-05-29T11:26:50.332Z,70.80
2019-05-29T11:29:21.340Z,71.00
2019-05-29T11:31:53.226Z,71.20
2019-05-29T11:34:24.236Z,71.20
2019-05-29T11:36:55.996Z,71.30
2019-05-29T11:39:27.132Z,71.50
2019-05-29T11:41:58.669Z,71.60
2019-05-29T11:44:29.729Z,71.80
2019-05-29T11:47:00.634Z,71.80
2019-05-29T11:49:31.506Z,71.90
2019-05-29T11:52:21.430Z,72.00
2019-05-29T11:54:34.598Z,72.10
2019-05-29T11:57:05.621Z,72.30
2019-05-29T11:59:36.522Z,73.00
2019-05-29T12:02:07.482Z,72.70
2019-05-29T12:04:38.388Z,72.90
2019-05-29T12:07:09.072Z,73.10
2019-05-29T12:09:40.000Z,73.20
2019-05-29T12:12:10.952Z,73.40
2019-05-29T12:14:58.925Z,73.60
2019-05-29T12:17:13.881Z,73.60
2019-05-29T12:19:44.595Z,73.80
2019-05-29T12:22:15.395Z,73.90
2019-05-29T12:24:46.270Z,74.10
2019-05-29T12:27:17.087Z,74.40
2019-05-29T12:29:48.158Z,74.90
2019-05-29T12:32:18.852Z,75.10
2019-05-29T12:34:53.543Z,74.80
2019-05-29T12:37:21.901Z,74.30
2019-05-29T12:39:53.247Z,72.70
2019-05-29T12:42:24.212Z,70.80
2019-05-29T12:44:55.450Z,71.10
2019-05-29T12:47:26.382Z,70.40
2019-05-29T12:49:57.640Z,71.30
2019-05-29T12:52:28.932Z,70.70
2019-05-29T12:55:00.055Z,72.10
2019-05-29T13:43:33.647Z,80.80
2019-05-29T13:46:04.705Z,80.90
2019-05-29T13:48:35.721Z,81.10
2019-05-29T13:51:07.420Z,81.90
2019-05-29T13:53:38.354Z,81.50
2019-05-29T13:56:09.155Z,82.50
2019-05-29T13:58:40.023Z,82.70
2019-05-29T14:01:10.928Z,82.70
2019-05-29T14:03:41.753Z,82.70
2019-05-29T14:06:12.582Z,82.90
2019-05-29T14:08:43.318Z,83.70
2019-05-29T14:11:14.141Z,83.60
2019-05-29T14:13:44.948Z,84.00
2019-05-29T14:16:15.755Z,84.50
2019-05-29T14:18:46.724Z,84.40
2019-05-29T14:21:17.534Z,83.80
2019-05-29T14:23:48.206Z,84.00
2019-05-29T14:26:19.044Z,84.00
2019-05-29T14:28:49.784Z,83.70
2019-05-29T14:31:20.751Z,83.90
2019-05-29T14:33:51.453Z,84.90
2019-05-29T14:36:22.681Z,84.80
2019-05-29T14:38:53.406Z,85.10
2019-05-29T14:41:24.433Z,84.70
2019-05-29T14:43:55.298Z,84.90
2019-05-29T14:46:25.986Z,85.00
2019-05-29T14:48:56.998Z,84.70
2019-05-29T14:51:27.872Z,85.60
2019-05-29T14:53:58.675Z,85.30
2019-05-29T14:56:29.832Z,86.00
2019-05-29T14:59:00.880Z,86.20
2019-05-29T15:01:31.830Z,85.80
2019-05-29T15:04:03.603Z,85.60
2019-05-29T15:06:34.467Z,86.40
2019-05-29T15:09:07.587Z,86.20
2019-05-29T15:11:38.600Z,86.50
2019-05-29T15:14:10.158Z,86.60
2019-05-29T15:16:41.041Z,86.50
2019-05-29T15:19:13.108Z,86.50
2019-05-29T15:21:44.137Z,86.20
2019-05-29T15:24:15.844Z,86.60
2019-05-29T15:26:46.915Z,86.00
2019-05-29T15:29:18.118Z,85.80
2019-05-29T15:31:49.026Z,85.70
2019-05-29T15:34:19.786Z,85.10
2019-05-29T15:36:50.397Z,85.20
2019-05-29T15:39:21.313Z,85.40
2019-05-29T15:41:52.266Z,85.60
2019-05-29T15:44:23.192Z,86.40
2019-05-29T15:46:54.518Z,86.20
2019-05-29T15:49:25.524Z,86.60
2019-05-29T15:51:56.395Z,87.00
2019-05-29T15:54:27.422Z,87.10
2019-05-29T15:56:58.318Z,87.60
2019-05-29T15:59:29.100Z,87.70
2019-05-29T16:02:00.064Z,87.50
2019-05-29T16:04:30.946Z,87.70
2019-05-29T16:07:02.068Z,87.50
2019-05-29T16:09:32.830Z,87.20
2019-05-29T16:12:03.791Z,87.60
2019-05-29T16:14:34.591Z,87.70
2019-05-29T16:17:05.455Z,88.20
2019-05-29T16:19:36.323Z,88.50
2019-05-29T16:22:07.076Z,88.60
2019-05-29T16:24:38.036Z,88.40
2019-05-29T16:27:10.321Z,88.60
2019-05-29T16:29:41.079Z,88.70
2019-05-29T16:32:12.115Z,89.00
2019-05-29T16:34:42.849Z,89.10
2019-05-29T16:37:13.700Z,89.10
2019-05-29T16:39:44.499Z,89.10
2019-05-29T16:42:15.857Z,89.30
2019-05-29T16:44:46.792Z,89.70
2019-05-29T16:47:18.690Z,89.90
2019-05-29T16:49:49.626Z,89.70
2019-05-29T16:52:20.810Z,89.40
2019-05-29T16:54:51.746Z,89.80
2019-05-29T16:57:23.320Z,90.10
2019-05-29T16:59:54.335Z,89.70
2019-05-29T17:02:25.126Z,89.70
2019-05-29T17:04:58.257Z,90.00
2019-05-29T17:07:28.401Z,90.00
2019-05-29T17:09:59.181Z,89.90
2019-05-29T17:12:29.964Z,89.80
2019-05-29T17:15:00.893Z,89.90
2019-05-29T17:17:31.830Z,89.90
2019-05-29T17:20:02.760Z,89.90
2019-05-29T17:22:33.663Z,90.00
2019-05-29T17:25:04.430Z,90.00
2019-05-29T17:27:35.314Z,90.00
2019-05-29T17:30:07.300Z,90.00
2019-05-29T17:32:38.467Z,90.00
2019-05-29T17:35:09.748Z,89.80
2019-05-29T17:37:41.083Z,89.80
2019-05-29T17:40:12.118Z,90.00
2019-05-29T17:42:42.934Z,90.20
2019-05-29T17:45:16.527Z,89.70
2019-05-29T17:47:46.462Z,89.90
2019-05-29T17:50:20.131Z,90.00
2019-05-29T17:52:49.941Z,89.70
2019-05-29T17:55:22.145Z,89.60
2019-05-29T17:57:53.315Z,89.90
2019-05-29T18:00:26.682Z,89.90
2019-05-29T18:02:57.587Z,89.60
2019-05-29T18:05:28.509Z,89.80
2019-05-29T18:08:01.632Z,90.00
2019-05-29T18:10:31.735Z,89.90
2019-05-29T18:13:02.911Z,89.90
2019-05-29T18:15:33.902Z,90.00
2019-05-29T18:18:04.724Z,89.90
2019-05-29T18:20:35.757Z,90.00
2019-05-29T18:23:09.064Z,90.00
2019-05-29T18:25:43.631Z,90.00
2019-05-29T18:28:14.423Z,90.10
2019-05-29T18:30:45.456Z,90.10
2019-05-29T18:33:16.427Z,90.20
2019-05-29T18:35:47.470Z,90.10
2019-05-29T18:38:18.519Z,90.10
2019-05-29T18:40:49.312Z,90.00
2019-05-29T18:43:20.426Z,90.00
2019-05-29T18:45:51.253Z,90.00
2019-05-29T18:48:23.168Z,90.00
2019-05-29T18:50:54.141Z,89.90
2019-05-29T18:53:25.007Z,90.00
2019-05-29T18:55:55.921Z,89.80
2019-05-29T18:58:28.087Z,89.90
2019-05-29T19:00:59.024Z,89.90
2019-05-29T19:03:29.847Z,90.00
2019-05-29T19:06:00.664Z,90.00
2019-05-29T19:08:31.901Z,89.80
2019-05-29T19:11:02.849Z,89.70
2019-05-29T19:13:33.668Z,89.80
2019-05-29T19:16:04.749Z,89.90
2019-05-29T19:18:35.470Z,89.80
2019-05-29T19:21:06.460Z,89.70
2019-05-29T19:23:37.360Z,89.70
2019-05-29T19:26:08.348Z,89.50
2019-05-29T19:28:39.074Z,89.50
2019-05-29T19:31:09.962Z,89.50
2019-05-29T19:33:40.787Z,89.50
2019-05-29T19:36:11.857Z,89.50
2019-05-29T19:38:43.287Z,89.50
2019-05-29T19:41:14.220Z,89.50
2019-05-29T19:43:45.155Z,89.40
2019-05-29T19:46:16.010Z,89.40
2019-05-29T19:48:46.822Z,89.30
2019-05-29T19:51:17.708Z,89.10
2019-05-29T19:53:48.623Z,89.00
2019-05-29T19:56:19.571Z,89.00
2019-05-29T19:58:50.468Z,89.40
2019-05-29T20:01:30.677Z,89.70
2019-05-29T20:03:53.615Z,89.70
2019-05-29T20:06:24.444Z,89.50
2019-05-29T20:08:55.341Z,89.20
2019-05-29T20:11:27.562Z,89.10
2019-05-29T20:13:58.536Z,89.40
2019-05-29T20:16:30.077Z,89.50
2019-05-29T20:19:01.128Z,89.90
2019-05-29T20:21:32.777Z,89.70
2019-05-29T20:24:03.654Z,89.50
2019-05-29T20:26:35.207Z,89.40
2019-05-29T20:29:06.363Z,89.20
2019-05-29T20:31:37.146Z,89.50
2019-05-29T20:34:08.025Z,89.50
2019-05-29T20:36:39.938Z,89.60
2019-05-29T20:39:11.079Z,89.50
2019-05-29T20:41:43.557Z,89.50
2019-05-29T20:44:14.358Z,89.70
2019-05-29T20:46:45.195Z,89.90
2019-05-29T20:49:15.958Z,90.10
2019-05-29T20:51:46.857Z,90.00
2019-05-29T20:54:17.815Z,90.00
2019-05-29T20:56:48.880Z,90.10
2019-05-29T20:59:19.831Z,90.20
2019-05-29T21:01:50.776Z,90.10
2019-05-29T21:04:21.856Z,90.20
2019-05-29T21:06:53.013Z,90.30
2019-05-29T21:09:24.013Z,90.20
2019-05-29T21:11:54.888Z,90.30
2019-05-29T21:14:25.916Z,90.30
2019-05-29T21:16:56.644Z,90.40
2019-05-29T21:19:27.820Z,90.40
2019-05-29T21:21:58.759Z,90.50
2019-05-29T21:24:29.536Z,90.40
2019-05-29T21:27:00.812Z,90.40
2019-05-29T21:29:31.809Z,90.50
2019-05-29T21:32:02.775Z,90.40
2019-05-29T21:34:33.564Z,90.30
2019-05-29T21:37:04.301Z,90.30
2019-05-29T21:39:36.243Z,90.30
2019-05-29T21:42:07.209Z,90.30
2019-05-29T21:44:38.660Z,90.20
2019-05-29T21:47:09.789Z,90.30
2019-05-29T21:49:41.015Z,90.30
2019-05-29T21:52:12.282Z,90.40
2019-05-29T21:54:43.632Z,90.40
2019-05-29T21:57:14.489Z,90.40
2019-05-29T21:59:45.922Z,90.50
2019-05-29T22:02:16.809Z,90.40
2019-05-29T22:04:48.727Z,90.40
2019-05-29T22:07:19.642Z,90.40
2019-05-29T22:09:50.749Z,90.30
2019-05-29T22:12:21.559Z,90.30
2019-05-29T22:14:53.347Z,90.20
2019-05-29T22:17:24.625Z,90.20
2019-05-29T22:19:55.441Z,90.20
2019-05-29T22:22:26.439Z,90.20
2019-05-29T22:24:57.399Z,90.20
2019-05-29T22:27:28.563Z,90.40
2019-05-29T22:29:59.472Z,90.40
2019-05-29T22:32:30.283Z,90.50
2019-05-29T22:35:01.920Z,90.40
2019-05-29T22:37:32.851Z,90.40
2019-05-29T22:40:03.505Z,90.40
2019-05-29T22:42:34.438Z,90.50
2019-05-29T22:45:06.276Z,90.50
2019-05-29T22:47:38.413Z,90.50
2019-05-29T22:50:09.429Z,91.10
2019-05-29T22:52:40.490Z,90.70
2019-05-29T22:55:11.878Z,90.80
2019-05-29T22:57:42.675Z,90.80
2019-05-29T23:00:14.450Z,90.80
2019-05-29T23:02:45.185Z,90.90
2019-05-29T23:05:16.419Z,90.90
2019-05-29T23:07:47.000Z,90.90
2019-05-29T23:10:18.174Z,91.00
2019-05-29T23:12:49.091Z,91.00
2019-05-29T23:15:20.102Z,91.10
2019-05-29T23:17:50.792Z,91.20
2019-05-29T23:20:21.958Z,91.20
2019-05-29T23:22:52.838Z,91.10
